Time;durP1;ratioP1;P1;durP2;ratioP2;P2;SDS_P1;SDS_P2;PMS_P1;PMS_P2;Temp;Humidity;BMP_temperature;BMP_pressure;BME280_temperature;BME280_humidity;BME280_pressure;Samples;Min_cycle;Max_cycle;Signal;HPM_P1;HPM_P2
2022/06/26 00:00:43;;;;;;;50.78;37.88;;;;;;;;;;4390984;32;20088;-75
2022/06/26 00:03:09;;;;;;;43.75;34.88;;;;;;;;;;4377233;32;20031;-75
2022/06/26 00:05:34;;;;;;;41.65;35.00;;;;;;;;;;4377275;32;20026;-75
2022/06/26 00:08:00;;;;;;;47.05;35.97;;;;;;;;;;4390835;32;20379;-76
2022/06/26 00:10:25;;;;;;;51.40;38.80;;;;;;;;;;4390349;32;20027;-75
2022/06/26 00:13:09;;;;;;;49.58;36.67;;;;;;;;;;4390492;32;20080;-75
2022/06/26 00:15:34;;;;;;;51.20;39.42;;;;;;;;;;4377447;32;20097;-75
2022/06/26 00:17:59;;;;;;;53.90;40.00;;;;;;;;;;4390683;32;20080;-75
2022/06/26 00:20:25;;;;;;;56.92;40.22;;;;;;;;;;4390548;32;20034;-72
2022/06/26 00:22:53;;;;;;;54.72;39.05;;;;;;;;;;4390691;32;20373;-75
2022/06/26 00:25:18;;;;;;;58.03;39.70;;;;;;;;;;4390582;32;20038;-75
2022/06/26 00:27:49;;;;;;;49.80;37.15;;;;;;;;;;4390609;32;20049;-75
2022/06/26 00:30:15;;;;;;;49.83;34.60;;;;;;;;;;4376992;32;20015;-75
2022/06/26 00:32:40;;;;;;;56.28;37.28;;;;;;;;;;4390885;32;20400;-74
2022/06/26 00:35:12;;;;;;;44.70;31.00;;;;;;;;;;4390373;32;20060;-74
2022/06/26 00:37:37;;;;;;;41.65;31.42;;;;;;;;;;4376772;32;20027;-74
2022/06/26 00:40:02;;;;;;;41.50;31.05;;;;;;;;;;4393452;27;20468;-66
2022/06/26 00:42:28;;;;;;;39.15;27.52;;;;;;;;;;4376860;32;20053;-66
2022/06/26 00:44:55;;;;;;;32.00;24.70;;;;;;;;;;4375156;32;20438;-67
2022/06/26 00:47:21;;;;;;;34.72;24.63;;;;;;;;;;4375293;32;20169;-67
2022/06/26 00:49:46;;;;;;;35.45;25.12;;;;;;;;;;4361295;32;20023;-65
2022/06/26 00:52:11;;;;;;;31.00;23.02;;;;;;;;;;4363008;32;20408;-66
2022/06/26 00:54:37;;;;;;;32.35;23.70;;;;;;;;;;4375320;32;20039;-67
2022/06/26 00:57:02;;;;;;;31.00;22.48;;;;;;;;;;4376922;32;20090;-66
2022/06/26 00:59:27;;;;;;;35.20;26.15;;;;;;;;;;4376501;32;20056;-66
2022/06/26 01:01:53;;;;;;;30.80;24.23;;;;;;;;;;4375084;32;20413;-65
2022/06/26 01:04:18;;;;;;;34.38;24.23;;;;;;;;;;4376773;32;20027;-65
2022/06/26 01:06:43;;;;;;;36.13;26.83;;;;;;;;;;4362898;32;20031;-65
2022/06/26 01:09:12;;;;;;;31.85;25.45;;;;;;;;;;4375088;32;20057;-67
2022/06/26 01:11:38;;;;;;;39.30;28.08;;;;;;;;;;4373603;32;20027;-66
2022/06/26 01:14:03;;;;;;;40.25;29.35;;;;;;;;;;4376505;32;20057;-66
2022/06/26 01:16:29;;;;;;;45.55;29.85;;;;;;;;;;4375622;32;20397;-67
2022/06/26 01:18:55;;;;;;;42.85;30.42;;;;;;;;;;4379357;32;20057;-66
2022/06/26 01:21:21;;;;;;;39.20;28.83;;;;;;;;;;4364358;32;20026;-66
2022/06/26 01:23:47;;;;;;;40.85;30.27;;;;;;;;;;4377755;32;20060;-66
2022/06/26 01:26:12;;;;;;;45.83;31.25;;;;;;;;;;4379640;32;20027;-66
2022/06/26 01:28:37;;;;;;;40.72;30.52;;;;;;;;;;4378829;32;20024;-66
2022/06/26 01:31:02;;;;;;;45.00;31.40;;;;;;;;;;4379613;32;20451;-67
2022/06/26 01:33:28;;;;;;;46.08;32.72;;;;;;;;;;4377898;32;20122;-67
2022/06/26 01:35:53;;;;;;;47.38;32.63;;;;;;;;;;4379191;32;20058;-67
2022/06/26 01:38:21;;;;;;;44.97;32.50;;;;;;;;;;4367629;32;20053;-65
2022/06/26 01:40:46;;;;;;;44.47;31.17;;;;;;;;;;4393991;32;20198;-66
2022/06/26 01:43:12;;;;;;;45.08;30.55;;;;;;;;;;4391313;32;20447;-65
2022/06/26 01:45:49;;;;;;;44.83;31.85;;;;;;;;;;4391069;32;20027;-66
2022/06/26 01:48:15;;;;;;;44.17;32.13;;;;;;;;;;4394422;32;20022;-66
2022/06/26 01:50:40;;;;;;;44.38;32.08;;;;;;;;;;4394353;32;20149;-66
2022/06/26 01:53:05;;;;;;;42.50;31.55;;;;;;;;;;4394259;32;20022;-66
2022/06/26 01:55:31;;;;;;;40.58;30.80;;;;;;;;;;4392476;32;20080;-67
2022/06/26 01:57:56;;;;;;;44.00;31.00;;;;;;;;;;4393635;32;20085;-67
2022/06/26 02:00:21;;;;;;;47.88;32.10;;;;;;;;;;4390958;32;20356;-66
2022/06/26 02:02:47;;;;;;;44.63;30.75;;;;;;;;;;4393809;32;20023;-66
2022/06/26 02:05:12;;;;;;;40.45;29.42;;;;;;;;;;4392806;32;20073;-66
2022/06/26 02:07:37;;;;;;;48.47;31.40;;;;;;;;;;4394107;32;20473;-66
2022/06/26 02:15:30;;;;;;;44.47;29.45;;;;;;;;;;4393592;32;20057;-66
2022/06/26 02:17:55;;;;;;;47.13;31.17;;;;;;;;;;4379951;32;20030;-66
2022/06/26 02:20:21;;;;;;;48.85;30.60;;;;;;;;;;4393749;32;20026;-66
2022/06/26 02:22:46;;;;;;;46.78;30.77;;;;;;;;;;4391293;32;20053;-66
2022/06/26 02:25:11;;;;;;;48.17;31.87;;;;;;;;;;4379658;32;20030;-66
2022/06/26 02:27:36;;;;;;;41.65;28.40;;;;;;;;;;4379476;32;20377;-66
2022/06/26 02:30:02;;;;;;;49.38;30.52;;;;;;;;;;4389911;32;20034;-66
2022/06/26 02:32:27;;;;;;;44.35;30.48;;;;;;;;;;4392200;32;20056;-66
2022/06/26 02:34:52;;;;;;;47.43;27.17;;;;;;;;;;4392604;32;20054;-66
2022/06/26 02:37:18;;;;;;;45.20;27.17;;;;;;;;;;4393585;32;20123;-65
2022/06/26 02:39:43;;;;;;;40.03;26.40;;;;;;;;;;4391687;32;20176;-66
2022/06/26 02:42:08;;;;;;;43.28;27.95;;;;;;;;;;4393717;32;20333;-66
2022/06/26 02:44:34;;;;;;;42.47;26.17;;;;;;;;;;4393298;32;20077;-66
2022/06/26 02:46:59;;;;;;;37.90;25.83;;;;;;;;;;4393276;32;20410;-66
2022/06/26 02:49:24;;;;;;;41.60;25.80;;;;;;;;;;4393391;32;20056;-67
2022/06/26 02:51:50;;;;;;;39.83;24.50;;;;;;;;;;4379667;32;20093;-66
2022/06/26 02:54:15;;;;;;;38.88;24.15;;;;;;;;;;4392898;32;20541;-67
2022/06/26 02:56:40;;;;;;;35.28;24.10;;;;;;;;;;4392230;32;20026;-66
2022/06/26 02:59:05;;;;;;;42.05;24.70;;;;;;;;;;4391881;32;20517;-67
2022/06/26 03:01:30;;;;;;;43.33;26.85;;;;;;;;;;4391621;32;20097;-67
2022/06/26 03:03:56;;;;;;;47.25;26.92;;;;;;;;;;4391891;32;20023;-66
2022/06/26 03:06:21;;;;;;;40.17;27.00;;;;;;;;;;4393278;32;20439;-67
2022/06/26 03:08:46;;;;;;;42.53;27.15;;;;;;;;;;4394194;32;20451;-66
2022/06/26 03:11:11;;;;;;;44.13;27.15;;;;;;;;;;4377916;32;20031;-66
2022/06/26 03:13:36;;;;;;;44.85;25.90;;;;;;;;;;4391720;32;20053;-66
2022/06/26 03:16:02;;;;;;;50.58;28.45;;;;;;;;;;4391534;32;20035;-66
2022/06/26 03:18:27;;;;;;;47.40;28.67;;;;;;;;;;4391567;32;20023;-67
2022/06/26 03:20:52;;;;;;;49.05;29.98;;;;;;;;;;4392861;32;20061;-66
2022/06/26 03:23:17;;;;;;;46.37;29.05;;;;;;;;;;4391188;32;20053;-66
2022/06/26 03:25:42;;;;;;;58.83;31.37;;;;;;;;;;4392587;32;20074;-66
2022/06/26 03:28:07;;;;;;;58.70;31.33;;;;;;;;;;4392912;32;20121;-66
2022/06/26 03:30:33;;;;;;;49.83;28.48;;;;;;;;;;4392883;32;20455;-66
2022/06/26 03:32:58;;;;;;;52.55;29.48;;;;;;;;;;4392814;32;20294;-66
2022/06/26 03:35:23;;;;;;;54.07;30.23;;;;;;;;;;4392753;32;20023;-66
2022/06/26 03:37:48;;;;;;;39.28;26.42;;;;;;;;;;4379031;32;20168;-67
2022/06/26 03:40:13;;;;;;;50.38;28.50;;;;;;;;;;4390568;32;20035;-66
2022/06/26 03:42:39;;;;;;;50.28;28.45;;;;;;;;;;4392383;32;20035;-66
2022/06/26 03:45:04;;;;;;;55.15;28.38;;;;;;;;;;4392626;32;20095;-66
2022/06/26 03:47:30;;;;;;;46.90;26.25;;;;;;;;;;4392309;32;20121;-66
2022/06/26 03:49:55;;;;;;;48.45;27.42;;;;;;;;;;4392506;32;20029;-66
2022/06/26 03:52:24;;;;;;;47.70;27.23;;;;;;;;;;4392441;32;20076;-66
2022/06/26 03:54:49;;;;;;;50.90;27.95;;;;;;;;;;4392209;32;20127;-66
2022/06/26 03:57:14;;;;;;;46.80;27.70;;;;;;;;;;4391481;32;20042;-66
2022/06/26 03:59:39;;;;;;;47.33;26.80;;;;;;;;;;4390594;32;20042;-65
2022/06/26 04:02:05;;;;;;;54.35;27.15;;;;;;;;;;4392169;32;20023;-65
2022/06/26 04:04:30;;;;;;;48.85;25.35;;;;;;;;;;4392022;32;20030;-65
2022/06/26 04:06:55;;;;;;;47.83;25.80;;;;;;;;;;4392060;32;20052;-66
2022/06/26 04:09:20;;;;;;;50.03;26.23;;;;;;;;;;4392188;32;20022;-66
2022/06/26 04:11:45;;;;;;;46.97;26.80;;;;;;;;;;4392024;32;20118;-66
2022/06/26 04:14:11;;;;;;;41.37;23.55;;;;;;;;;;4378408;32;20126;-66
2022/06/26 04:16:36;;;;;;;51.80;26.02;;;;;;;;;;4392323;32;20031;-66
2022/06/26 04:19:01;;;;;;;52.03;27.87;;;;;;;;;;4392176;32;20053;-66
2022/06/26 04:21:26;;;;;;;41.83;25.40;;;;;;;;;;4390324;32;20031;-65
2022/06/26 04:23:52;;;;;;;44.88;26.02;;;;;;;;;;4377965;32;20061;-66
2022/06/26 04:26:17;;;;;;;53.28;27.30;;;;;;;;;;4390447;32;20022;-67
2022/06/26 04:28:42;;;;;;;52.30;25.33;;;;;;;;;;4392013;32;20069;-66
2022/06/26 04:31:07;;;;;;;48.08;24.98;;;;;;;;;;4390524;32;20390;-66
2022/06/26 04:33:32;;;;;;;44.40;25.15;;;;;;;;;;4391932;32;20074;-67
2022/06/26 04:35:58;;;;;;;41.22;24.52;;;;;;;;;;4378181;32;20046;-66
2022/06/26 04:38:23;;;;;;;43.42;23.77;;;;;;;;;;4391064;32;20069;-67
2022/06/26 04:40:48;;;;;;;39.83;23.80;;;;;;;;;;4392266;32;20467;-67
2022/06/26 04:43:13;;;;;;;36.20;23.23;;;;;;;;;;4391611;32;20156;-66
2022/06/26 04:45:38;;;;;;;36.75;20.92;;;;;;;;;;4391950;32;20396;-66
2022/06/26 04:48:04;;;;;;;36.72;21.90;;;;;;;;;;4376563;32;20023;-65
2022/06/26 04:50:29;;;;;;;34.92;19.67;;;;;;;;;;4390883;32;20177;-66
2022/06/26 04:52:54;;;;;;;33.95;19.35;;;;;;;;;;4390131;32;20030;-66
2022/06/26 04:55:19;;;;;;;31.75;18.67;;;;;;;;;;4390439;32;20110;-65
2022/06/26 04:57:44;;;;;;;32.50;18.60;;;;;;;;;;4390122;32;20068;-65
2022/06/26 05:00:11;;;;;;;34.45;18.20;;;;;;;;;;4390166;32;20098;-65
2022/06/26 05:02:36;;;;;;;35.35;19.05;;;;;;;;;;4390357;32;20076;-65
2022/06/26 05:05:02;;;;;;;31.85;16.75;;;;;;;;;;4388448;32;20428;-66
2022/06/26 05:07:27;;;;;;;31.42;17.83;;;;;;;;;;4391629;32;20049;-66
2022/06/26 05:09:52;;;;;;;29.33;17.12;;;;;;;;;;4390949;32;20070;-66
2022/06/26 05:12:17;;;;;;;26.08;16.55;;;;;;;;;;4391524;32;20023;-67
2022/06/26 05:14:43;;;;;;;23.30;16.07;;;;;;;;;;4389806;32;20488;-66
2022/06/26 05:17:09;;;;;;;22.62;15.25;;;;;;;;;;4391284;32;20130;-67
2022/06/26 05:19:35;;;;;;;24.33;14.38;;;;;;;;;;4390154;32;20519;-67
2022/06/26 05:22:02;;;;;;;20.92;14.00;;;;;;;;;;4390125;32;20027;-66
2022/06/26 05:24:27;;;;;;;22.75;12.68;;;;;;;;;;4389981;32;20026;-66
2022/06/26 05:26:52;;;;;;;20.10;12.90;;;;;;;;;;4390210;32;20075;-65
2022/06/26 05:29:17;;;;;;;25.23;13.32;;;;;;;;;;4391436;32;20318;-66
2022/06/26 05:31:42;;;;;;;26.08;15.45;;;;;;;;;;4389899;32;20431;-66
2022/06/26 05:34:08;;;;;;;15.15;12.32;;;;;;;;;;4376052;32;20094;-66
2022/06/26 05:36:33;;;;;;;22.05;11.77;;;;;;;;;;4390917;32;20084;-66
2022/06/26 05:38:58;;;;;;;25.12;13.55;;;;;;;;;;4389084;32;20035;-66
2022/06/26 05:41:23;;;;;;;25.52;13.40;;;;;;;;;;4391458;32;20057;-66
2022/06/26 05:43:48;;;;;;;17.42;10.82;;;;;;;;;;4391129;32;20514;-67
2022/06/26 05:46:13;;;;;;;18.50;10.43;;;;;;;;;;4391106;32;20114;-65
2022/06/26 05:48:39;;;;;;;19.03;10.30;;;;;;;;;;4390238;32;20019;-65
2022/06/26 05:51:04;;;;;;;14.52;8.43;;;;;;;;;;4390439;32;20532;-66
2022/06/26 05:53:29;;;;;;;13.70;8.93;;;;;;;;;;4390873;32;20387;-67
2022/06/26 05:55:54;;;;;;;19.97;9.83;;;;;;;;;;4391529;32;20026;-66
2022/06/26 05:58:19;;;;;;;16.10;8.83;;;;;;;;;;4390785;32;20123;-66
2022/06/26 06:00:44;;;;;;;14.87;7.50;;;;;;;;;;4389548;32;20123;-66
2022/06/26 06:03:10;;;;;;;9.55;7.90;;;;;;;;;;4390677;32;20558;-68
2022/06/26 06:05:35;;;;;;;16.33;7.83;;;;;;;;;;4392255;32;20049;-66
2022/06/26 06:08:00;;;;;;;11.98;7.28;;;;;;;;;;4393999;32;20212;-66
2022/06/26 06:10:26;;;;;;;9.48;7.10;;;;;;;;;;4390635;32;20049;-67
2022/06/26 06:12:51;;;;;;;11.82;8.02;;;;;;;;;;4377889;32;20096;-66
2022/06/26 06:15:17;;;;;;;12.23;6.82;;;;;;;;;;4393348;32;20030;-66
2022/06/26 06:17:43;;;;;;;10.55;6.82;;;;;;;;;;4393772;32;20050;-66
2022/06/26 06:20:13;;;;;;;16.62;7.28;;;;;;;;;;4379780;32;20049;-66
2022/06/26 06:22:39;;;;;;;10.52;7.03;;;;;;;;;;4393536;32;20129;-67
2022/06/26 06:25:05;;;;;;;12.65;7.35;;;;;;;;;;4392262;32;20049;-66
2022/06/26 06:27:30;;;;;;;13.15;7.78;;;;;;;;;;4379508;32;20026;-66
2022/06/26 06:29:55;;;;;;;12.83;7.10;;;;;;;;;;4393667;32;20031;-65
2022/06/26 06:32:21;;;;;;;11.35;6.78;;;;;;;;;;4392359;32;20123;-66
2022/06/26 06:34:46;;;;;;;12.43;6.80;;;;;;;;;;4393320;32;20085;-66
2022/06/26 06:37:11;;;;;;;10.40;6.50;;;;;;;;;;4393372;32;20421;-66
2022/06/26 06:39:36;;;;;;;11.33;6.77;;;;;;;;;;4390038;32;20085;-66
2022/06/26 06:42:02;;;;;;;12.85;6.68;;;;;;;;;;4391774;32;20145;-66
2022/06/26 06:44:27;;;;;;;9.98;6.05;;;;;;;;;;4393166;32;20473;-66
2022/06/26 06:46:53;;;;;;;12.45;7.35;;;;;;;;;;4393381;32;20042;-66
2022/06/26 06:49:18;;;;;;;18.87;8.43;;;;;;;;;;4393072;32;20026;-66
2022/06/26 06:51:43;;;;;;;13.43;6.80;;;;;;;;;;4393038;32;20380;-66
2022/06/26 06:54:08;;;;;;;11.02;6.22;;;;;;;;;;4392087;32;20018;-66
2022/06/26 06:56:33;;;;;;;12.65;6.62;;;;;;;;;;4379147;32;20408;-66
2022/06/26 06:59:00;;;;;;;12.07;5.87;;;;;;;;;;4392918;32;20026;-66
2022/06/26 07:01:25;;;;;;;12.37;5.90;;;;;;;;;;4392002;32;20131;-66
2022/06/26 07:03:50;;;;;;;11.00;5.20;;;;;;;;;;4393132;32;20080;-66
2022/06/26 07:06:15;;;;;;;9.13;5.53;;;;;;;;;;4390993;32;20110;-66
2022/06/26 07:08:41;;;;;;;10.25;5.18;;;;;;;;;;4393050;32;20053;-66
2022/06/26 07:11:06;;;;;;;9.82;5.53;;;;;;;;;;4378836;32;20412;-66
2022/06/26 07:13:31;;;;;;;13.30;5.65;;;;;;;;;;4392817;32;20064;-66
2022/06/26 07:15:56;;;;;;;9.95;5.10;;;;;;;;;;4391130;32;20415;-66
2022/06/26 07:18:24;;;;;;;9.20;5.03;;;;;;;;;;4392709;32;20054;-66
2022/06/26 07:20:49;;;;;;;8.10;5.25;;;;;;;;;;4391020;32;20102;-66
2022/06/26 07:23:14;;;;;;;7.75;4.80;;;;;;;;;;4392264;32;20157;-66
2022/06/26 07:25:39;;;;;;;6.65;4.50;;;;;;;;;;4390840;32;20123;-66
2022/06/26 07:28:04;;;;;;;6.62;4.57;;;;;;;;;;4378599;32;20057;-66
2022/06/26 07:30:31;;;;;;;11.07;5.10;;;;;;;;;;4391955;32;20018;-66
2022/06/26 07:32:56;;;;;;;8.40;4.93;;;;;;;;;;4378857;32;20061;-66
2022/06/26 07:35:21;;;;;;;9.97;4.63;;;;;;;;;;4392454;32;20337;-66
2022/06/26 07:37:47;;;;;;;8.40;4.60;;;;;;;;;;4377030;32;20130;-66
2022/06/26 07:40:12;;;;;;;9.60;5.30;;;;;;;;;;4390116;32;20073;-66
2022/06/26 07:42:37;;;;;;;7.97;4.57;;;;;;;;;;4391111;32;20049;-66
2022/06/26 07:45:03;;;;;;;10.15;5.20;;;;;;;;;;4392339;32;20165;-65
2022/06/26 07:47:28;;;;;;;7.07;4.80;;;;;;;;;;4378475;32;20069;-65
2022/06/26 07:49:54;;;;;;;8.63;5.18;;;;;;;;;;4390312;32;20034;-66
2022/06/26 07:52:19;;;;;;;7.78;4.00;;;;;;;;;;4377933;32;20144;-65
2022/06/26 07:54:45;;;;;;;9.10;4.15;;;;;;;;;;4390616;32;20035;-66
2022/06/26 07:57:10;;;;;;;6.12;4.20;;;;;;;;;;4378423;32;20031;-66
2022/06/26 07:59:35;;;;;;;6.78;4.10;;;;;;;;;;4390610;32;20026;-66
2022/06/26 08:02:00;;;;;;;9.55;4.97;;;;;;;;;;4391708;32;20379;-67
2022/06/26 08:04:26;;;;;;;9.70;4.20;;;;;;;;;;4391925;32;20027;-66
2022/06/26 08:06:51;;;;;;;7.28;4.05;;;;;;;;;;4391919;32;20027;-66
2022/06/26 08:09:16;;;;;;;8.82;4.25;;;;;;;;;;4392241;32;20075;-66
2022/06/26 08:11:41;;;;;;;6.40;3.72;;;;;;;;;;4392278;32;20052;-66
2022/06/26 08:14:07;;;;;;;7.82;3.92;;;;;;;;;;4377656;32;20019;-65
2022/06/26 08:16:32;;;;;;;6.22;3.28;;;;;;;;;;4392000;32;20445;-66
2022/06/26 08:18:57;;;;;;;6.22;3.08;;;;;;;;;;4391786;32;20030;-66
2022/06/26 08:24:06;;;;;;;4.68;2.40;;;;;;;;;;4390781;32;20193;-66
2022/06/26 08:26:31;;;;;;;5.43;3.12;;;;;;;;;;4390910;32;20027;-66
2022/06/26 08:28:57;;;;;;;5.47;3.30;;;;;;;;;;4391979;32;20446;-66
2022/06/26 08:31:22;;;;;;;4.43;2.50;;;;;;;;;;4391974;32;20022;-65
2022/06/26 08:33:47;;;;;;;6.95;2.45;;;;;;;;;;4391142;32;20023;-65
2022/06/26 08:36:12;;;;;;;6.03;2.43;;;;;;;;;;4390988;32;20022;-65
2022/06/26 08:38:39;;;;;;;5.80;2.17;;;;;;;;;;4377124;32;20131;-65
2022/06/26 08:41:06;;;;;;;9.02;2.28;;;;;;;;;;4391365;32;20509;-66
2022/06/26 08:43:31;;;;;;;3.95;2.28;;;;;;;;;;4390139;32;20077;-65
2022/06/26 08:45:57;;;;;;;7.43;2.30;;;;;;;;;;4391374;32;20401;-65
2022/06/26 08:48:24;;;;;;;3.12;2.33;;;;;;;;;;4391248;32;20092;-65
2022/06/26 08:50:49;;;;;;;9.20;2.60;;;;;;;;;;4391291;32;20050;-67
2022/06/26 08:53:15;;;;;;;5.97;3.67;;;;;;;;;;4377464;32;20027;-66
2022/06/26 08:55:41;;;;;;;5.80;2.60;;;;;;;;;;4389993;32;20061;-66
2022/06/26 08:58:07;;;;;;;5.43;2.47;;;;;;;;;;4390999;32;20153;-66
2022/06/26 09:00:32;;;;;;;4.07;2.05;;;;;;;;;;4377443;32;20084;-66
2022/06/26 09:02:57;;;;;;;6.43;2.70;;;;;;;;;;4389860;32;20048;-66
2022/06/26 09:05:22;;;;;;;5.53;2.60;;;;;;;;;;4389276;32;20088;-66
2022/06/26 09:07:48;;;;;;;8.25;2.60;;;;;;;;;;4391092;32;20387;-66
2022/06/26 09:10:17;;;;;;;12.57;2.97;;;;;;;;;;4390960;32;20062;-66
2022/06/26 09:12:42;;;;;;;5.22;3.10;;;;;;;;;;4390489;32;20059;-67
2022/06/26 09:15:14;;;;;;;7.18;3.03;;;;;;;;;;4391307;32;20030;-66
2022/06/26 09:17:39;;;;;;;3.78;2.40;;;;;;;;;;4391485;32;20022;-66
2022/06/26 09:20:07;;;;;;;5.17;2.37;;;;;;;;;;4391153;32;20026;-67
2022/06/26 09:22:32;;;;;;;4.30;2.50;;;;;;;;;;4389367;32;20157;-67
2022/06/26 09:24:58;;;;;;;5.70;2.70;;;;;;;;;;4390880;32;20405;-67
2022/06/26 09:27:23;;;;;;;8.23;2.50;;;;;;;;;;4391158;32;20085;-66
2022/06/26 09:29:50;;;;;;;8.65;2.97;;;;;;;;;;4389633;32;20090;-66
2022/06/26 09:32:15;;;;;;;3.08;2.12;;;;;;;;;;4391000;32;20074;-66
2022/06/26 09:34:47;;;;;;;4.72;2.10;;;;;;;;;;4389981;32;20031;-66
2022/06/26 09:37:13;;;;;;;5.20;2.47;;;;;;;;;;4389814;32;20022;-66
2022/06/26 09:39:38;;;;;;;5.65;2.60;;;;;;;;;;4392077;32;20099;-67
2022/06/26 09:42:21;;;;;;;5.53;2.70;;;;;;;;;;4393543;32;20058;-66
2022/06/26 09:44:50;;;;;;;7.72;3.03;;;;;;;;;;4393337;32;20127;-67
2022/06/26 09:47:38;;;;;;;4.15;2.50;;;;;;;;;;4393316;32;20022;-66
2022/06/26 09:50:05;;;;;;;5.03;2.15;;;;;;;;;;4392647;32;20045;-66
2022/06/26 09:52:31;;;;;;;7.15;2.22;;;;;;;;;;4393550;32;20031;-66
2022/06/26 09:54:57;;;;;;;3.87;2.15;;;;;;;;;;4379862;32;20050;-66
2022/06/26 09:57:23;;;;;;;4.45;2.97;;;;;;;;;;4392698;32;20027;-67
2022/06/26 09:59:48;;;;;;;5.53;2.17;;;;;;;;;;4393873;32;20022;-66
2022/06/26 10:07:46;;;;;;;4.45;2.75;;;;;;;;;;4392155;32;20048;-66
2022/06/26 10:10:12;;;;;;;5.50;2.75;;;;;;;;;;4392692;32;20060;-67
2022/06/26 10:12:37;;;;;;;6.12;2.70;;;;;;;;;;4393666;32;20113;-67
2022/06/26 10:15:03;;;;;;;7.85;2.10;;;;;;;;;;4393047;32;20324;-66
2022/06/26 10:17:47;;;;;;;4.45;2.80;;;;;;;;;;4391884;32;20030;-67
2022/06/26 10:20:15;;;;;;;6.78;3.30;;;;;;;;;;4393012;32;20053;-67
2022/06/26 10:22:41;;;;;;;5.28;2.90;;;;;;;;;;4391257;32;20404;-66
2022/06/26 10:25:07;;;;;;;5.50;2.12;;;;;;;;;;4393263;32;20041;-67
2022/06/26 10:27:33;;;;;;;8.98;2.92;;;;;;;;;;4378321;32;20023;-66
2022/06/26 10:30:08;;;;;;;7.40;2.05;;;;;;;;;;4392820;32;20475;-66
2022/06/26 10:32:34;;;;;;;7.12;3.37;;;;;;;;;;4392270;32;20070;-66
2022/06/26 10:34:59;;;;;;;8.98;3.08;;;;;;;;;;4392557;32;20313;-67
2022/06/26 10:37:25;;;;;;;7.47;3.95;;;;;;;;;;4391948;32;20053;-67
2022/06/26 10:39:51;;;;;;;7.40;3.30;;;;;;;;;;4391401;32;20466;-66
2022/06/26 10:45:10;;;;;;;8.77;3.65;;;;;;;;;;4392748;32;20130;-66
2022/06/26 10:47:41;;;;;;;10.82;3.97;;;;;;;;;;4392591;32;20023;-66
2022/06/26 10:50:21;;;;;;;7.60;4.28;;;;;;;;;;4391214;32;20094;-67
2022/06/26 10:52:46;;;;;;;12.07;5.37;;;;;;;;;;4390305;32;20045;-66
2022/06/26 10:55:11;;;;;;;9.48;4.60;;;;;;;;;;4392388;32;20026;-67
2022/06/26 10:57:37;;;;;;;7.30;3.62;;;;;;;;;;4390998;32;20092;-67
2022/06/26 11:00:12;;;;;;;6.60;3.87;;;;;;;;;;4392268;32;20127;-67
2022/06/26 11:02:38;;;;;;;6.97;4.20;;;;;;;;;;4392445;32;20057;-65
2022/06/26 11:05:04;;;;;;;6.65;3.80;;;;;;;;;;4392204;32;20082;-65
2022/06/26 11:07:39;;;;;;;8.10;4.35;;;;;;;;;;4392483;32;20049;-67
2022/06/26 11:10:07;;;;;;;12.27;4.65;;;;;;;;;;4392061;32;20057;-67
2022/06/26 11:12:39;;;;;;;7.93;4.05;;;;;;;;;;4391734;32;20056;-67
2022/06/26 11:15:05;;;;;;;11.18;4.45;;;;;;;;;;4390388;32;20049;-67
2022/06/26 11:17:30;;;;;;;8.98;4.82;;;;;;;;;;4378194;32;20027;-66
2022/06/26 11:22:41;;;;;;;7.85;4.20;;;;;;;;;;4391607;32;20072;-66
2022/06/26 11:25:06;;;;;;;6.47;4.62;;;;;;;;;;4376744;32;20363;-66
2022/06/26 11:27:31;;;;;;;7.43;4.53;;;;;;;;;;4389032;32;20054;-67
2022/06/26 11:29:57;;;;;;;11.00;4.67;;;;;;;;;;4390097;32;20027;-67
2022/06/26 11:32:23;;;;;;;11.95;4.62;;;;;;;;;;4391294;32;20413;-67
2022/06/26 11:34:49;;;;;;;6.80;4.78;;;;;;;;;;4391641;32;20104;-65
2022/06/26 11:37:14;;;;;;;6.60;4.15;;;;;;;;;;4390562;32;20448;-67
2022/06/26 11:39:40;;;;;;;7.87;4.10;;;;;;;;;;4389680;32;20067;-66
2022/06/26 11:42:18;;;;;;;10.38;4.37;;;;;;;;;;4390994;32;20334;-66
2022/06/26 11:44:47;;;;;;;7.22;4.20;;;;;;;;;;4389277;32;20172;-67
2022/06/26 11:47:12;;;;;;;8.32;4.70;;;;;;;;;;4390697;32;20057;-67
2022/06/26 11:49:37;;;;;;;9.23;4.45;;;;;;;;;;4389956;32;20086;-67
2022/06/26 11:52:03;;;;;;;10.18;4.50;;;;;;;;;;4389695;32;20454;-67
2022/06/26 11:54:28;;;;;;;5.90;4.28;;;;;;;;;;4389901;32;20043;-67
2022/06/26 11:56:54;;;;;;;10.10;4.43;;;;;;;;;;4389141;32;20058;-67
2022/06/26 11:59:19;;;;;;;8.88;6.05;;;;;;;;;;4388729;32;20027;-67
2022/06/26 12:01:44;;;;;;;6.97;4.72;;;;;;;;;;4389726;32;20023;-67
2022/06/26 12:04:10;;;;;;;9.35;4.95;;;;;;;;;;4374229;32;20389;-67
2022/06/26 12:06:41;;;;;;;9.73;4.55;;;;;;;;;;4374734;32;20031;-66
2022/06/26 12:09:20;;;;;;;10.23;4.57;;;;;;;;;;4374754;32;20057;-67
2022/06/26 12:11:46;;;;;;;12.02;4.85;;;;;;;;;;4374478;32;20026;-67
2022/06/26 12:14:12;;;;;;;6.25;4.68;;;;;;;;;;4362794;32;20401;-67
2022/06/26 12:16:48;;;;;;;5.68;4.05;;;;;;;;;;4375811;32;20143;-67
2022/06/26 12:19:13;;;;;;;7.43;4.32;;;;;;;;;;4375974;32;20166;-67
2022/06/26 12:21:38;;;;;;;7.37;4.70;;;;;;;;;;4376065;32;20027;-67
2022/06/26 12:24:09;;;;;;;6.28;4.37;;;;;;;;;;4374175;32;20057;-66
2022/06/26 12:26:36;;;;;;;7.75;4.22;;;;;;;;;;4375734;32;20051;-66
2022/06/26 12:29:07;;;;;;;5.30;3.37;;;;;;;;;;4375994;32;20035;-66
2022/06/26 12:31:32;;;;;;;7.72;3.70;;;;;;;;;;4374099;32;20026;-67
2022/06/26 12:33:58;;;;;;;7.57;4.07;;;;;;;;;;4373652;32;20405;-66
2022/06/26 12:36:23;;;;;;;5.47;3.65;;;;;;;;;;4375622;32;20053;-67
2022/06/26 12:38:48;;;;;;;7.33;3.90;;;;;;;;;;4373973;32;20405;-67
2022/06/26 12:41:16;;;;;;;7.50;2.95;;;;;;;;;;4376254;32;20166;-66
2022/06/26 12:43:43;;;;;;;8.80;3.53;;;;;;;;;;4374807;32;20114;-66
2022/06/26 12:46:08;;;;;;;7.18;3.03;;;;;;;;;;4360116;32;20372;-66
2022/06/26 12:48:33;;;;;;;6.72;2.85;;;;;;;;;;4375564;32;20453;-67
2022/06/26 12:50:59;;;;;;;5.60;3.03;;;;;;;;;;4374751;32;20098;-67
2022/06/26 12:53:24;;;;;;;8.20;2.92;;;;;;;;;;4374442;32;20123;-67
2022/06/26 12:55:49;;;;;;;5.78;2.62;;;;;;;;;;4375185;32;20049;-67
2022/06/26 12:58:14;;;;;;;6.28;2.80;;;;;;;;;;4375225;32;20138;-67
2022/06/26 13:00:39;;;;;;;5.35;3.22;;;;;;;;;;4374918;32;20022;-67
2022/06/26 13:03:05;;;;;;;5.15;2.80;;;;;;;;;;4373801;32;20039;-67
2022/06/26 13:05:30;;;;;;;6.37;2.50;;;;;;;;;;4375110;32;20082;-67
2022/06/26 13:07:55;;;;;;;5.60;2.07;;;;;;;;;;4376099;32;20380;-67
2022/06/26 13:10:20;;;;;;;4.65;2.50;;;;;;;;;;4375904;32;20150;-66
2022/06/26 13:12:45;;;;;;;7.65;2.35;;;;;;;;;;4375739;32;20023;-67
2022/06/26 13:15:10;;;;;;;7.17;2.50;;;;;;;;;;4377293;32;20050;-67
2022/06/26 13:17:36;;;;;;;6.82;2.67;;;;;;;;;;4378928;32;20127;-66
2022/06/26 13:20:01;;;;;;;14.32;2.72;;;;;;;;;;4378507;32;20027;-67
2022/06/26 13:22:27;;;;;;;6.28;2.30;;;;;;;;;;4378547;32;20026;-66
2022/06/26 13:24:52;;;;;;;5.03;2.20;;;;;;;;;;4377155;32;20103;-67
2022/06/26 13:27:17;;;;;;;4.35;2.37;;;;;;;;;;4378112;32;20326;-67
2022/06/26 13:29:42;;;;;;;7.32;2.37;;;;;;;;;;4363535;32;20034;-67
2022/06/26 13:32:08;;;;;;;5.07;2.60;;;;;;;;;;4378000;32;20124;-67
2022/06/26 13:34:33;;;;;;;6.50;2.42;;;;;;;;;;4364667;32;20031;-68
2022/06/26 13:36:59;;;;;;;6.18;2.53;;;;;;;;;;4376508;32;20019;-66
2022/06/26 13:39:24;;;;;;;7.00;2.60;;;;;;;;;;4376480;32;20093;-67
2022/06/26 13:41:49;;;;;;;5.55;2.55;;;;;;;;;;4376860;32;20045;-67
2022/06/26 13:44:15;;;;;;;6.03;3.20;;;;;;;;;;4376693;32;20357;-68
2022/06/26 13:46:40;;;;;;;5.68;2.67;;;;;;;;;;4376883;32;20124;-67
2022/06/26 13:49:07;;;;;;;4.47;2.40;;;;;;;;;;4378414;32;20031;-68
2022/06/26 13:51:33;;;;;;;7.35;2.80;;;;;;;;;;4378555;32;20027;-67
2022/06/26 13:53:58;;;;;;;5.03;2.85;;;;;;;;;;4376357;32;20102;-66
2022/06/26 13:56:24;;;;;;;10.27;2.67;;;;;;;;;;4362872;32;20483;-67
2022/06/26 13:58:49;;;;;;;6.70;2.50;;;;;;;;;;4377245;32;20185;-67
2022/06/26 14:01:14;;;;;;;6.78;3.03;;;;;;;;;;4377579;32;20460;-67
2022/06/26 14:03:39;;;;;;;4.00;2.40;;;;;;;;;;4375639;32;20058;-67
2022/06/26 14:06:05;;;;;;;5.82;2.80;;;;;;;;;;4377165;32;20043;-66
2022/06/26 14:08:30;;;;;;;5.03;2.42;;;;;;;;;;4378419;32;20411;-66
2022/06/26 14:10:56;;;;;;;11.32;3.10;;;;;;;;;;4391020;32;20023;-67
2022/06/26 14:13:21;;;;;;;5.32;2.53;;;;;;;;;;4388695;32;20109;-67
2022/06/26 14:15:46;;;;;;;6.50;2.42;;;;;;;;;;4390355;32;20023;-67
2022/06/26 14:18:12;;;;;;;5.10;2.50;;;;;;;;;;4384284;32;20041;-66
2022/06/26 14:20:37;;;;;;;4.80;2.12;;;;;;;;;;4373835;32;20030;-67
2022/06/26 14:25:56;;;;;;;5.15;2.12;;;;;;;;;;4377597;32;20065;-67
2022/06/26 14:28:22;;;;;;;4.43;2.30;;;;;;;;;;4376948;32;20030;-67
2022/06/26 14:30:48;;;;;;;7.85;3.50;;;;;;;;;;4376446;32;20034;-67
2022/06/26 14:33:16;;;;;;;7.90;2.45;;;;;;;;;;4381620;32;20486;-65
2022/06/26 14:35:41;;;;;;;9.05;3.05;;;;;;;;;;4391301;32;20026;-66
2022/06/26 14:38:06;;;;;;;10.18;3.15;;;;;;;;;;4391780;32;20182;-66
2022/06/26 14:40:32;;;;;;;7.70;2.47;;;;;;;;;;4390463;32;20378;-66
2022/06/26 14:42:57;;;;;;;10.38;2.65;;;;;;;;;;4387817;32;20146;-67
2022/06/26 14:45:22;;;;;;;6.20;2.83;;;;;;;;;;4388785;32;20031;-68